createdAt,value
2018-02-11T00:00:58.081Z,0
2018-02-11T00:01:57.638Z,0
2018-02-11T00:02:57.931Z,0
2018-02-11T00:03:55.993Z,0
2018-02-11T00:04:55.854Z,0
2018-02-11T00:05:56.878Z,0
2018-02-11T00:06:56.901Z,0
2018-02-11T00:07:56.742Z,0
2018-02-11T00:08:56.582Z,0
2018-02-11T00:09:56.665Z,0
2018-02-11T00:10:57.054Z,0
2018-02-11T00:11:56.840Z,0
2018-02-11T00:12:57.385Z,0
2018-02-11T00:13:57.296Z,0
2018-02-11T00:14:57.724Z,0
2018-02-11T00:15:57.478Z,0
2018-02-11T00:16:57.620Z,0
2018-02-11T00:17:57.573Z,0
2018-02-11T00:18:57.824Z,0
2018-02-11T00:19:58.315Z,0
2018-02-11T00:20:58.260Z,0
2018-02-11T00:21:58.459Z,0
2018-02-11T00:22:58.214Z,0
2018-02-11T00:23:58.784Z,0
2018-02-11T00:24:58.811Z,0
2018-02-11T00:25:58.569Z,0
2018-02-11T00:26:58.840Z,0
2018-02-11T00:27:59.054Z,0
2018-02-11T00:28:58.727Z,0
2018-02-11T00:29:58.863Z,0
2018-02-11T00:30:58.893Z,0
2018-02-11T00:31:59.164Z,0
2018-02-11T00:32:59.084Z,0
2018-02-11T00:33:59.525Z,0
2018-02-11T00:35:00.080Z,0
2018-02-11T00:36:00.567Z,0
2018-02-11T00:36:59.982Z,0
2018-02-11T00:38:00.168Z,0
2018-02-11T00:39:00.501Z,0
2018-02-11T00:40:00.247Z,0
2018-02-11T00:41:00.519Z,0
2018-02-11T00:42:00.352Z,0
2018-02-11T00:43:00.037Z,0
2018-02-11T00:44:00.918Z,0
2018-02-11T00:45:00.358Z,0
2018-02-11T00:46:01.210Z,0
2018-02-11T00:47:01.484Z,0
2018-02-11T00:48:00.677Z,0
2018-02-11T00:49:01.430Z,0
2018-02-11T00:50:01.189Z,0
2018-02-11T00:51:01.182Z,0
2018-02-11T00:52:01.244Z,0
2018-02-11T00:53:02.783Z,0
2018-02-11T00:54:01.702Z,0
2018-02-11T00:55:01.850Z,0
2018-02-11T00:56:02.267Z,0
2018-02-11T00:57:02.464Z,0
2018-02-11T00:58:02.448Z,0
2018-02-11T00:59:03.604Z,0
2018-02-11T01:01:02.790Z,0
2018-02-11T01:02:03.756Z,0
2018-02-11T01:03:03.321Z,0
2018-02-11T01:04:04.700Z,0
2018-02-11T01:05:03.629Z,0
2018-02-11T01:06:03.912Z,0
2018-02-11T01:07:03.670Z,0
2018-02-11T01:08:04.504Z,0
2018-02-11T01:09:04.580Z,0
2018-02-11T01:10:05.813Z,0
2018-02-11T01:11:05.187Z,0
2018-02-11T01:12:05.509Z,0
2018-02-11T01:13:06.224Z,0
2018-02-11T01:14:06.171Z,0
2018-02-11T01:15:06.744Z,0
2018-02-11T01:16:06.360Z,0
2018-02-11T01:17:06.400Z,0
2018-02-11T01:18:06.555Z,0
2018-02-11T01:19:07.340Z,0
2018-02-11T01:20:07.077Z,0
2018-02-11T01:21:09.053Z,0
2018-02-11T01:22:08.458Z,0
2018-02-11T01:23:08.908Z,0
2018-02-11T01:24:07.676Z,0
2018-02-11T01:25:08.345Z,0
2018-02-11T01:26:09.550Z,0
2018-02-11T01:27:08.037Z,0
2018-02-11T01:28:09.576Z,0
2018-02-11T01:30:17.402Z,0
2018-02-11T01:31:17.536Z,0
2018-02-11T01:32:17.970Z,0
2018-02-11T01:33:18.209Z,0
2018-02-11T01:34:18.232Z,0
2018-02-11T01:35:17.903Z,0
2018-02-11T01:36:18.645Z,0
2018-02-11T01:37:18.393Z,0
2018-02-11T01:38:18.007Z,0
2018-02-11T01:39:18.807Z,0
2018-02-11T01:40:18.813Z,0
2018-02-11T01:41:18.948Z,0
2018-02-11T01:42:19.350Z,0
2018-02-11T01:43:19.170Z,0
2018-02-11T01:44:19.184Z,0
2018-02-11T01:45:19.345Z,0
2018-02-11T01:46:19.981Z,0
2018-02-11T01:47:20.138Z,0
2018-02-11T01:48:19.884Z,0
2018-02-11T01:49:20.063Z,0
2018-02-11T01:50:20.039Z,0
2018-02-11T01:51:20.596Z,0
2018-02-11T01:52:20.402Z,0
2018-02-11T01:53:20.673Z,0
2018-02-11T01:54:20.172Z,0
2018-02-11T01:55:20.585Z,0
2018-02-11T01:56:20.790Z,0
2018-02-11T01:57:20.943Z,0
2018-02-11T01:58:21.333Z,0
2018-02-11T01:59:21.440Z,0
2018-02-11T02:00:21.514Z,0
2018-02-11T02:01:21.722Z,0
2018-02-11T02:02:21.464Z,0
2018-02-11T02:03:21.960Z,0
2018-02-11T02:04:21.947Z,0
2018-02-11T02:05:21.706Z,0
2018-02-11T02:06:22.366Z,0
2018-02-11T02:07:22.107Z,0
2018-02-11T02:08:22.130Z,0
2018-02-11T02:09:22.499Z,0
2018-02-11T02:10:22.403Z,0
2018-02-11T02:11:22.557Z,0
2018-02-11T02:12:22.871Z,0
2018-02-11T02:13:23.497Z,0
2018-02-11T02:14:23.321Z,0
2018-02-11T02:15:23.301Z,0
2018-02-11T02:16:23.626Z,0
2018-02-11T02:17:24.288Z,0
2018-02-11T02:18:24.084Z,0
2018-02-11T02:19:24.379Z,0
2018-02-11T02:20:23.809Z,0
2018-02-11T02:21:23.857Z,0
2018-02-11T02:22:24.118Z,0
2018-02-11T02:23:24.501Z,0
2018-02-11T02:24:24.666Z,0
2018-02-11T02:25:24.797Z,0
2018-02-11T02:26:24.961Z,0
2018-02-11T02:27:25.337Z,0
2018-02-11T02:28:24.909Z,0
2018-02-11T02:29:25.225Z,0
2018-02-11T02:30:25.357Z,0
2018-02-11T02:31:25.403Z,0
2018-02-11T02:32:25.834Z,0
2018-02-11T02:33:25.872Z,0
2018-02-11T02:34:26.124Z,0
2018-02-11T02:35:26.001Z,0
2018-02-11T02:36:26.258Z,0
2018-02-11T02:37:26.661Z,0
2018-02-11T02:38:27.161Z,0
2018-02-11T02:39:27.287Z,0
2018-02-11T02:40:27.333Z,0
2018-02-11T02:41:27.303Z,0
2018-02-11T02:42:26.729Z,0
2018-02-11T02:43:26.898Z,0
2018-02-11T02:44:27.261Z,0
2018-02-11T02:45:27.012Z,0
2018-02-11T02:46:27.556Z,0
2018-02-11T02:47:27.330Z,0
2018-02-11T02:48:28.085Z,0
2018-02-11T02:49:28.266Z,0
2018-02-11T02:50:27.946Z,0
2018-02-11T02:51:27.893Z,0
2018-02-11T02:52:28.001Z,0
2018-02-11T02:53:28.150Z,0
2018-02-11T02:54:27.913Z,0
2018-02-11T02:55:28.428Z,0
2018-02-11T02:56:28.214Z,0
2018-02-11T02:57:28.706Z,0
2018-02-11T02:58:28.963Z,0
2018-02-11T02:59:29.227Z,0
2018-02-11T03:00:28.934Z,0
2018-02-11T03:01:30.359Z,0
2018-02-11T03:02:29.432Z,0
2018-02-11T03:03:29.517Z,0
2018-02-11T03:04:29.822Z,0
2018-02-11T03:05:29.514Z,0
2018-02-11T03:06:29.883Z,0
2018-02-11T03:07:30.007Z,0
2018-02-11T03:08:30.579Z,0
2018-02-11T03:09:30.231Z,0
2018-02-11T03:10:30.039Z,0
2018-02-11T03:11:30.317Z,0
2018-02-11T03:12:31.010Z,0
2018-02-11T03:13:31.033Z,0
2018-02-11T03:14:31.030Z,0
2018-02-11T03:15:31.805Z,0
2018-02-11T03:16:31.288Z,0
2018-02-11T03:17:31.786Z,0
2018-02-11T03:18:31.338Z,0
2018-02-11T03:19:31.493Z,0
2018-02-11T03:20:31.338Z,0
2018-02-11T03:21:31.446Z,0
2018-02-11T03:22:31.741Z,0
2018-02-11T03:23:32.012Z,0
2018-02-11T03:24:31.739Z,0
2018-02-11T03:25:31.935Z,0
2018-02-11T03:26:32.102Z,0
2018-02-11T03:27:31.719Z,0
2018-02-11T03:28:32.595Z,0
2018-02-11T03:29:31.768Z,0
2018-02-11T03:30:31.869Z,0
2018-02-11T03:31:32.502Z,0
2018-02-11T03:32:31.961Z,0
2018-02-11T03:33:31.589Z,0
2018-02-11T03:34:32.078Z,0
2018-02-11T03:35:32.114Z,0
2018-02-11T03:36:31.924Z,0
2018-02-11T03:37:31.923Z,0
2018-02-11T03:38:32.363Z,0
2018-02-11T03:39:33.339Z,0
2018-02-11T03:40:33.231Z,0
2018-02-11T03:41:31.834Z,0
2018-02-11T03:42:32.115Z,0
2018-02-11T03:43:32.113Z,0
2018-02-11T03:44:32.841Z,0
2018-02-11T03:45:33.289Z,0
2018-02-11T03:46:33.506Z,0
2018-02-11T03:47:33.507Z,0
2018-02-11T03:48:33.140Z,0
2018-02-11T03:49:33.304Z,0
2018-02-11T03:50:33.946Z,0
2018-02-11T03:51:32.907Z,0
2018-02-11T03:52:32.912Z,0
2018-02-11T03:53:33.603Z,0
2018-02-11T03:54:33.264Z,0
2018-02-11T03:55:34.059Z,0
2018-02-11T03:56:33.885Z,0
2018-02-11T03:57:33.273Z,0
2018-02-11T03:58:33.838Z,0
2018-02-11T03:59:33.905Z,0
2018-02-11T04:00:33.810Z,0
2018-02-11T04:01:33.644Z,0
2018-02-11T04:02:34.297Z,0
2018-02-11T04:03:34.193Z,0
2018-02-11T04:04:34.041Z,0
2018-02-11T04:05:34.362Z,0
2018-02-11T04:06:34.256Z,0
2018-02-11T04:07:34.565Z,0
2018-02-11T04:08:34.687Z,0
2018-02-11T04:09:35.612Z,0
2018-02-11T04:10:35.364Z,0
2018-02-11T04:11:35.223Z,0
2018-02-11T04:12:35.321Z,0
2018-02-11T04:13:35.412Z,0
2018-02-11T04:14:35.364Z,0
2018-02-11T04:15:35.390Z,0
2018-02-11T04:16:35.781Z,0
2018-02-11T04:17:36.128Z,0
2018-02-11T04:18:36.237Z,0
2018-02-11T04:19:37.202Z,0
2018-02-11T04:20:37.050Z,0
2018-02-11T04:21:36.716Z,0
2018-02-11T04:22:37.086Z,0
2018-02-11T04:23:36.675Z,0
2018-02-11T04:24:37.208Z,0
2018-02-11T04:25:37.584Z,0
2018-02-11T04:26:37.162Z,0
2018-02-11T04:27:37.618Z,0
2018-02-11T04:28:37.817Z,0
2018-02-11T04:29:37.580Z,0
2018-02-11T04:30:37.850Z,0
2018-02-11T04:31:37.823Z,0
2018-02-11T04:32:38.852Z,0
2018-02-11T04:33:38.276Z,0
2018-02-11T04:34:37.990Z,0
2018-02-11T04:35:38.023Z,0
2018-02-11T04:36:37.506Z,0
2018-02-11T04:37:39.532Z,0
2018-02-11T04:38:38.593Z,0
2018-02-11T04:39:38.279Z,0
2018-02-11T04:40:38.248Z,0
2018-02-11T04:41:38.193Z,0
2018-02-11T04:42:38.357Z,0
2018-02-11T04:43:37.971Z,0
2018-02-11T04:44:38.631Z,0
2018-02-11T04:45:38.801Z,0
2018-02-11T04:46:38.249Z,0
2018-02-11T04:47:39.184Z,0
2018-02-11T04:48:38.784Z,0
2018-02-11T04:49:38.190Z,0
2018-02-11T04:50:39.523Z,0
2018-02-11T04:51:39.077Z,0
2018-02-11T04:52:38.793Z,0
2018-02-11T04:53:39.986Z,0
2018-02-11T04:54:39.692Z,0
2018-02-11T04:55:40.083Z,0
2018-02-11T04:56:40.885Z,0
2018-02-11T04:57:40.861Z,0
2018-02-11T04:58:39.179Z,0
2018-02-11T04:59:39.233Z,0
2018-02-11T05:00:39.328Z,0
2018-02-11T05:01:39.391Z,0
2018-02-11T05:02:39.640Z,0
2018-02-11T05:03:39.480Z,0
2018-02-11T05:04:39.267Z,0
2018-02-11T05:05:39.623Z,0
2018-02-11T05:06:39.440Z,0
2018-02-11T05:07:39.790Z,0
2018-02-11T05:08:40.420Z,0
2018-02-11T05:09:40.246Z,0
2018-02-11T05:10:40.715Z,0
2018-02-11T05:11:40.149Z,0
2018-02-11T05:12:40.882Z,0
2018-02-11T05:13:40.979Z,0
2018-02-11T05:14:40.877Z,0
2018-02-11T05:15:41.324Z,0
2018-02-11T05:16:40.851Z,0
2018-02-11T05:17:40.905Z,0
2018-02-11T05:18:40.888Z,0
2018-02-11T05:19:40.927Z,0
2018-02-11T05:20:41.964Z,0
2018-02-11T05:21:41.806Z,0
2018-02-11T05:22:42.358Z,0
2018-02-11T05:23:41.845Z,0
2018-02-11T05:24:42.011Z,0
2018-02-11T05:25:42.437Z,0
2018-02-11T05:26:41.828Z,0
2018-02-11T05:27:42.507Z,0
2018-02-11T05:28:42.654Z,0
2018-02-11T05:29:43.215Z,0
2018-02-11T05:30:44.004Z,0
2018-02-11T05:31:42.409Z,0
2018-02-11T05:32:42.611Z,0
2018-02-11T05:33:42.489Z,0
2018-02-11T05:34:43.190Z,0
2018-02-11T05:35:42.590Z,0
2018-02-11T05:36:42.675Z,0
2018-02-11T05:37:43.333Z,0
2018-02-11T05:38:43.189Z,0
2018-02-11T05:39:43.133Z,0
2018-02-11T05:40:43.390Z,0
2018-02-11T05:41:43.997Z,0
2018-02-11T05:42:43.910Z,0
2018-02-11T05:43:44.081Z,0
2018-02-11T05:44:44.235Z,0
2018-02-11T05:45:44.236Z,0
2018-02-11T05:46:44.439Z,0
2018-02-11T05:47:44.619Z,0
2018-02-11T05:48:44.515Z,0
2018-02-11T05:49:44.865Z,0
2018-02-11T05:50:44.530Z,0
2018-02-11T05:51:45.104Z,0
2018-02-11T05:52:44.692Z,0
2018-02-11T05:53:45.180Z,0
2018-02-11T05:54:45.675Z,0
2018-02-11T05:55:45.592Z,0
2018-02-11T05:56:46.019Z,0
2018-02-11T05:57:46.100Z,0
2018-02-11T05:58:46.492Z,0
2018-02-11T05:59:46.074Z,0
2018-02-11T06:00:45.907Z,0
2018-02-11T06:01:46.459Z,0
2018-02-11T06:02:47.052Z,4
2018-02-11T06:03:46.809Z,0
2018-02-11T06:04:46.938Z,4
2018-02-11T06:05:46.972Z,4
2018-02-11T06:06:47.708Z,4
2018-02-11T06:07:47.496Z,4
2018-02-11T06:08:47.513Z,4
2018-02-11T06:09:47.974Z,4
2018-02-11T06:10:48.340Z,8
2018-02-11T06:11:48.303Z,8
2018-02-11T06:12:48.398Z,8
2018-02-11T06:13:48.510Z,8
2018-02-11T06:14:48.654Z,16
2018-02-11T06:15:48.304Z,16
2018-02-11T06:16:48.702Z,20
2018-02-11T06:17:49.320Z,20
2018-02-11T06:18:49.106Z,24
2018-02-11T06:19:50.660Z,28
2018-02-11T06:20:49.920Z,32
2018-02-11T06:21:50.265Z,36
2018-02-11T06:22:50.110Z,36
2018-02-11T06:23:50.656Z,44
2018-02-11T06:24:50.370Z,52
2018-02-11T06:25:50.365Z,56
2018-02-11T06:26:50.287Z,68
2018-02-11T06:27:50.931Z,76
2018-02-11T06:28:50.495Z,84
2018-02-11T06:29:50.718Z,88
2018-02-11T06:30:51.372Z,100
2018-02-11T06:31:50.618Z,112
2018-02-11T06:32:51.382Z,124
2018-02-11T06:33:51.153Z,140
2018-02-11T06:34:51.523Z,156
2018-02-11T06:35:52.220Z,172
2018-02-11T06:36:52.558Z,184
2018-02-11T06:37:52.012Z,204
2018-02-11T06:38:52.342Z,220
2018-02-11T06:39:52.164Z,240
2018-02-11T06:40:52.384Z,256
2018-02-11T06:41:52.785Z,280
2018-02-11T06:42:53.381Z,304
2018-02-11T06:43:52.784Z,328
2018-02-11T06:44:52.920Z,356
2018-02-11T06:45:53.927Z,380
2018-02-11T06:46:53.470Z,404
2018-02-11T06:47:53.284Z,436
2018-02-11T06:48:53.505Z,460
2018-02-11T06:49:53.529Z,492
2018-02-11T06:50:53.382Z,532
2018-02-11T06:51:53.960Z,576
2018-02-11T06:52:53.981Z,616
2018-02-11T06:53:53.881Z,668
2018-02-11T06:54:54.158Z,724
2018-02-11T06:55:54.257Z,772
2018-02-11T06:56:54.922Z,836
2018-02-11T06:57:54.363Z,892
2018-02-11T06:58:54.794Z,944
2018-02-11T06:59:55.497Z,996
2018-02-11T07:00:55.803Z,1036
2018-02-11T07:01:55.988Z,1064
2018-02-11T07:02:55.577Z,1096
2018-02-11T07:03:55.136Z,1128
2018-02-11T07:04:55.390Z,1160
2018-02-11T07:05:55.668Z,1200
2018-02-11T07:06:56.044Z,1256
2018-02-11T07:07:56.532Z,1340
2018-02-11T07:08:55.965Z,1448
2018-02-11T07:09:56.531Z,1572
2018-02-11T07:10:56.788Z,1672
2018-02-11T07:11:56.343Z,1748
2018-02-11T07:12:56.621Z,1816
2018-02-11T07:13:56.794Z,1880
2018-02-11T07:14:56.638Z,1936
2018-02-11T07:15:56.765Z,1980
2018-02-11T07:16:57.213Z,2032
2018-02-11T07:17:57.245Z,2084
2018-02-11T07:18:57.638Z,2108
2018-02-11T07:19:57.320Z,2140
2018-02-11T07:20:57.660Z,2164
2018-02-11T07:21:57.135Z,2176
2018-02-11T07:22:57.427Z,2156
2018-02-11T07:23:58.089Z,2116
2018-02-11T07:24:57.853Z,2084
2018-02-11T07:25:58.475Z,2072
2018-02-11T07:26:58.401Z,2020
2018-02-11T07:27:58.323Z,1932
2018-02-11T07:28:58.155Z,1884
2018-02-11T07:29:58.519Z,1880
2018-02-11T07:30:58.656Z,1876
2018-02-11T07:31:58.572Z,1880
2018-02-11T07:32:58.855Z,1892
2018-02-11T07:33:59.052Z,1852
2018-02-11T07:34:59.354Z,1736
2018-02-11T07:35:59.038Z,1564
2018-02-11T07:36:58.532Z,1504
2018-02-11T07:37:59.267Z,1512
2018-02-11T07:38:59.993Z,1532
2018-02-11T07:39:59.647Z,1552
2018-02-11T07:40:59.498Z,1564
2018-02-11T07:42:00.019Z,1568
2018-02-11T07:43:00.734Z,1560
2018-02-11T07:44:00.880Z,1568
2018-02-11T07:45:00.894Z,1592
2018-02-11T07:46:01.048Z,1624
2018-02-11T07:47:01.586Z,1652
2018-02-11T07:48:01.983Z,1680
2018-02-11T07:49:01.999Z,1720
2018-02-11T07:50:02.123Z,1780
2018-02-11T07:51:02.166Z,1864
2018-02-11T07:52:01.912Z,1988
2018-02-11T07:53:02.051Z,2068
2018-02-11T07:54:02.133Z,2076
2018-02-11T07:55:02.358Z,2024
2018-02-11T07:56:01.973Z,1952
2018-02-11T07:57:03.054Z,1872
2018-02-11T07:58:02.621Z,1800
2018-02-11T07:59:03.128Z,1728
2018-02-11T08:01:02.952Z,1656
2018-02-11T08:02:02.918Z,1632
2018-02-11T08:03:03.602Z,1604
2018-02-11T08:04:03.778Z,1572
2018-02-11T08:05:04.708Z,1556
2018-02-11T08:06:04.482Z,1548
2018-02-11T08:07:04.348Z,1548
2018-02-11T08:08:04.722Z,1568
2018-02-11T08:09:04.835Z,1624
2018-02-11T08:10:05.165Z,1748
2018-02-11T08:11:05.051Z,2012
2018-02-11T08:12:05.890Z,2416
2018-02-11T08:13:06.328Z,2924
2018-02-11T08:14:05.754Z,3180
2018-02-11T08:15:05.902Z,3340
2018-02-11T08:16:05.777Z,3616
2018-02-11T08:17:05.278Z,4036
2018-02-11T08:18:05.610Z,4532
2018-02-11T08:19:05.308Z,5120
2018-02-11T08:20:05.888Z,5792
2018-02-11T08:21:06.117Z,6064
2018-02-11T08:22:05.774Z,6268
2018-02-11T08:23:06.157Z,6412
2018-02-11T08:24:06.001Z,6548
2018-02-11T08:25:05.933Z,6300
2018-02-11T08:26:06.105Z,5848
2018-02-11T08:27:05.880Z,4864
2018-02-11T08:28:06.200Z,3884
2018-02-11T08:29:06.624Z,3356
2018-02-11T08:30:06.410Z,3184
2018-02-11T08:31:07.259Z,3112
2018-02-11T08:32:07.248Z,3104
2018-02-11T08:33:06.450Z,3124
2018-02-11T08:34:06.534Z,3172
2018-02-11T08:35:06.832Z,3224
2018-02-11T08:36:07.071Z,3284
2018-02-11T08:37:06.507Z,3360
2018-02-11T08:38:07.056Z,3460
2018-02-11T08:39:07.317Z,3596
2018-02-11T08:40:06.875Z,3776
2018-02-11T08:41:07.147Z,3892
2018-02-11T08:42:07.953Z,4044
2018-02-11T08:43:08.021Z,4180
2018-02-11T08:44:07.445Z,4232
2018-02-11T08:45:07.877Z,4292
2018-02-11T08:46:07.596Z,4396
2018-02-11T08:47:08.150Z,4448
2018-02-11T08:48:08.341Z,4476
2018-02-11T08:49:07.852Z,4636
2018-02-11T08:50:08.911Z,4768
2018-02-11T08:51:09.462Z,4792
2018-02-11T08:52:09.095Z,4400
2018-02-11T08:53:10.310Z,4284
2018-02-11T08:54:09.705Z,4232
2018-02-11T08:55:10.072Z,4036
2018-02-11T08:56:09.983Z,3952
2018-02-11T08:57:09.479Z,3984
2018-02-11T08:58:09.835Z,4044
2018-02-11T08:59:09.727Z,4248
2018-02-11T09:01:10.055Z,4624
2018-02-11T09:02:10.248Z,5360
2018-02-11T09:03:10.369Z,6352
2018-02-11T09:04:10.380Z,8132
2018-02-11T09:05:10.079Z,9016
2018-02-11T09:06:10.739Z,9520
2018-02-11T09:07:11.160Z,10380
2018-02-11T09:08:11.220Z,12640
2018-02-11T09:09:11.507Z,12896
2018-02-11T09:10:11.506Z,13472
2018-02-11T09:11:11.405Z,13248
2018-02-11T09:12:11.318Z,14304
2018-02-11T09:13:11.923Z,13280
2018-02-11T09:14:11.227Z,11280
2018-02-11T09:15:12.113Z,7736
2018-02-11T09:16:11.458Z,11608
2018-02-11T09:17:11.497Z,11676
2018-02-11T09:18:11.823Z,11436
2018-02-11T09:19:12.064Z,7888
2018-02-11T09:20:12.454Z,6264
2018-02-11T09:21:12.969Z,6192
2018-02-11T09:22:12.913Z,6340
2018-02-11T09:23:13.161Z,5280
2018-02-11T09:24:13.322Z,4732
2018-02-11T09:25:13.688Z,4508
2018-02-11T09:26:14.398Z,4196
2018-02-11T09:27:13.396Z,3836
2018-02-11T09:28:14.341Z,3536
2018-02-11T09:29:14.073Z,3296
2018-02-11T09:30:14.393Z,3156
2018-02-11T09:31:14.946Z,3084
2018-02-11T09:32:14.830Z,3036
2018-02-11T09:33:15.158Z,2992
2018-02-11T09:34:15.460Z,2948
2018-02-11T09:35:16.116Z,2860
2018-02-11T09:36:15.986Z,2776
2018-02-11T09:37:16.001Z,2736
2018-02-11T09:38:16.464Z,2708
2018-02-11T09:39:16.286Z,2700
2018-02-11T09:40:16.255Z,2708
2018-02-11T09:41:16.713Z,2744
2018-02-11T09:42:16.240Z,2784
2018-02-11T09:43:16.637Z,2824
2018-02-11T09:44:16.493Z,2840
2018-02-11T09:45:17.315Z,2872
2018-02-11T09:46:16.933Z,2960
2018-02-11T09:47:16.802Z,3092
2018-02-11T09:48:17.111Z,3248
2018-02-11T09:49:17.418Z,3380
2018-02-11T09:50:17.951Z,3520
2018-02-11T09:51:17.858Z,3652
2018-02-11T09:52:17.989Z,3900
2018-02-11T09:53:17.949Z,4536
2018-02-11T09:54:18.157Z,5616
2018-02-11T09:55:18.598Z,7912
2018-02-11T09:56:18.777Z,11192
2018-02-11T09:57:19.200Z,16608
2018-02-11T09:58:19.010Z,16160
2018-02-11T09:59:19.412Z,13048
2018-02-11T10:01:19.857Z,7984
2018-02-11T10:02:34.744Z,6892
2018-02-11T10:03:19.552Z,6092
2018-02-11T10:04:20.244Z,6532
2018-02-11T10:05:20.008Z,8540
2018-02-11T10:06:19.562Z,7936
2018-02-11T10:07:19.728Z,6612
2018-02-11T10:08:19.802Z,5896
2018-02-11T10:09:20.464Z,5712
2018-02-11T10:10:20.146Z,5668
2018-02-11T10:11:20.539Z,5640
2018-02-11T10:12:20.651Z,5588
2018-02-11T10:13:20.823Z,5416
2018-02-11T10:14:21.272Z,5192
2018-02-11T10:15:21.066Z,4976
2018-02-11T10:16:21.119Z,4924
2018-02-11T10:17:21.163Z,4852
2018-02-11T10:18:20.881Z,4780
2018-02-11T10:19:21.582Z,4720
2018-02-11T10:20:21.711Z,4680
2018-02-11T10:21:22.110Z,5016
2018-02-11T10:22:21.765Z,5216
2018-02-11T10:23:21.896Z,5084
2018-02-11T10:24:22.272Z,5032
2018-02-11T10:25:22.366Z,5088
2018-02-11T10:26:22.344Z,5136
2018-02-11T10:27:22.574Z,5036
2018-02-11T10:28:22.828Z,4952
2018-02-11T10:29:24.459Z,4640
2018-02-11T10:30:23.384Z,4484
2018-02-11T10:31:23.285Z,4556
2018-02-11T10:32:23.650Z,4440
2018-02-11T10:33:23.751Z,4340
2018-02-11T10:34:23.943Z,4348
2018-02-11T10:35:24.159Z,4404
2018-02-11T10:36:24.207Z,4588
2018-02-11T10:37:24.355Z,4752
2018-02-11T10:38:25.223Z,4724
2018-02-11T10:39:25.663Z,4076
2018-02-11T10:40:26.123Z,3284
2018-02-11T10:41:26.485Z,2548
2018-02-11T10:42:26.088Z,2192
2018-02-11T10:43:26.833Z,2036
2018-02-11T10:44:26.778Z,1936
2018-02-11T10:45:26.569Z,1848
2018-02-11T10:46:26.715Z,1804
2018-02-11T10:47:27.089Z,1852
2018-02-11T10:48:27.472Z,2012
2018-02-11T10:49:28.120Z,2296
2018-02-11T10:50:28.198Z,2384
2018-02-11T10:51:28.169Z,2540
2018-02-11T10:52:27.956Z,2884
2018-02-11T10:53:28.002Z,3104
2018-02-11T10:54:28.469Z,3264
2018-02-11T10:55:28.158Z,3764
2018-02-11T10:56:28.360Z,4076
2018-02-11T10:57:29.091Z,4748
2018-02-11T10:58:28.784Z,5064
2018-02-11T10:59:29.150Z,5032
2018-02-11T11:00:28.914Z,5228
2018-02-11T11:01:29.186Z,5620
2018-02-11T11:02:29.147Z,5680
2018-02-11T11:03:29.563Z,5568
2018-02-11T11:04:30.109Z,5712
2018-02-11T11:05:29.802Z,5880
2018-02-11T11:06:30.668Z,5632
2018-02-11T11:07:30.421Z,5732
2018-02-11T11:08:30.127Z,5700
2018-02-11T11:09:30.598Z,5472
2018-02-11T11:10:31.027Z,5492
2018-02-11T11:11:31.823Z,5364
2018-02-11T11:12:30.801Z,5316
2018-02-11T11:13:31.057Z,5256
2018-02-11T11:14:31.897Z,5172
2018-02-11T11:15:31.370Z,5132
2018-02-11T11:16:31.775Z,4960
2018-02-11T11:17:31.851Z,4904
2018-02-11T11:18:32.065Z,4876
2018-02-11T11:19:31.811Z,4836
2018-02-11T11:20:32.472Z,4912
2018-02-11T11:21:32.556Z,4992
2018-02-11T11:22:32.515Z,5040
2018-02-11T11:23:32.752Z,4984
2018-02-11T11:24:32.715Z,5048
2018-02-11T11:25:32.139Z,4836
2018-02-11T11:26:32.969Z,4492
2018-02-11T11:27:33.412Z,4256
2018-02-11T11:28:33.374Z,4024
2018-02-11T11:29:33.840Z,3860
2018-02-11T11:30:33.684Z,3888
2018-02-11T11:31:33.926Z,3872
2018-02-11T11:32:33.835Z,3844
2018-02-11T11:33:33.684Z,3632
2018-02-11T11:34:34.247Z,3356
2018-02-11T11:35:34.339Z,3144
2018-02-11T11:36:34.219Z,2984
2018-02-11T11:37:35.728Z,2892
2018-02-11T11:38:35.626Z,2880
2018-02-11T11:39:34.634Z,2864
2018-02-11T11:40:35.228Z,2872
2018-02-11T11:41:34.240Z,3044
2018-02-11T11:42:35.148Z,3160
2018-02-11T11:43:35.086Z,3164
2018-02-11T11:44:35.598Z,3068
2018-02-11T11:45:35.588Z,2964
2018-02-11T11:46:35.521Z,2856
2018-02-11T11:47:35.085Z,2700
2018-02-11T11:48:35.325Z,2672
2018-02-11T11:49:34.964Z,2724
2018-02-11T11:50:35.422Z,2776
2018-02-11T11:51:35.611Z,2836
2018-02-11T11:52:35.768Z,2796
2018-02-11T11:53:35.613Z,2820
2018-02-11T11:54:36.414Z,2812
2018-02-11T11:55:36.530Z,2924
2018-02-11T11:56:36.313Z,2984
2018-02-11T11:57:36.314Z,2988
2018-02-11T11:58:36.584Z,2960
2018-02-11T11:59:36.237Z,2844
2018-02-11T12:00:37.245Z,2740
2018-02-11T12:01:36.692Z,2868
2018-02-11T12:02:36.714Z,2880
2018-02-11T12:03:36.996Z,2504
2018-02-11T12:04:36.867Z,2528
2018-02-11T12:05:37.638Z,2600
2018-02-11T12:06:37.837Z,2648
2018-02-11T12:07:37.867Z,2532
2018-02-11T12:08:37.485Z,2368
2018-02-11T12:09:38.166Z,2284
2018-02-11T12:10:37.647Z,2464
2018-02-11T12:11:38.080Z,2656
2018-02-11T12:12:38.521Z,2452
2018-02-11T12:13:38.708Z,2372
2018-02-11T12:14:37.728Z,2352
2018-02-11T12:15:38.871Z,2160
2018-02-11T12:16:38.482Z,2088
2018-02-11T12:17:38.325Z,2124
2018-02-11T12:18:39.107Z,2028
2018-02-11T12:19:38.879Z,1856
2018-02-11T12:20:38.540Z,1840
2018-02-11T12:21:39.028Z,1748
2018-02-11T12:22:39.698Z,1692
2018-02-11T12:23:39.436Z,1724
2018-02-11T12:24:39.572Z,1712
2018-02-11T12:25:41.269Z,1872
2018-02-11T12:26:40.551Z,2024
2018-02-11T12:27:41.021Z,2176
2018-02-11T12:28:40.436Z,2164
2018-02-11T12:29:40.726Z,2192
2018-02-11T12:30:40.525Z,2160
2018-02-11T12:31:40.511Z,2160
2018-02-11T12:32:40.421Z,2116
2018-02-11T12:33:41.451Z,2076
2018-02-11T12:34:41.266Z,2204
2018-02-11T12:35:40.935Z,2144
2018-02-11T12:36:40.992Z,2396
2018-02-11T12:37:41.442Z,2364
2018-02-11T12:38:42.103Z,2296
2018-02-11T12:39:41.587Z,2332
2018-02-11T12:40:41.870Z,2520
2018-02-11T12:41:41.440Z,2524
2018-02-11T12:42:42.044Z,2452
2018-02-11T12:43:41.755Z,2464
2018-02-11T12:44:41.721Z,2496
2018-02-11T12:45:42.043Z,2404
2018-02-11T12:46:42.061Z,2308
2018-02-11T12:47:43.008Z,2020
2018-02-11T12:48:42.857Z,2140
2018-02-11T12:49:42.658Z,2196
2018-02-11T12:50:42.889Z,2408
2018-02-11T12:51:42.904Z,2444
2018-02-11T12:52:42.824Z,2368
2018-02-11T12:53:43.811Z,2324
2018-02-11T12:54:43.098Z,2152
2018-02-11T12:55:43.380Z,2200
2018-02-11T12:56:43.882Z,2076
2018-02-11T12:57:44.811Z,1764
2018-02-11T12:58:44.886Z,1540
2018-02-11T12:59:45.076Z,1564
2018-02-11T13:00:45.949Z,1832
2018-02-11T13:01:46.455Z,2232
2018-02-11T13:02:44.638Z,2456
2018-02-11T13:03:45.909Z,2416
2018-02-11T13:04:45.640Z,2572
2018-02-11T13:05:45.810Z,2432
2018-02-11T13:06:46.250Z,2404
2018-02-11T13:07:46.103Z,1984
2018-02-11T13:08:46.552Z,1796
2018-02-11T13:09:46.220Z,1668
2018-02-11T13:10:46.238Z,1732
2018-02-11T13:11:45.659Z,1808
2018-02-11T13:12:46.595Z,2052
2018-02-11T13:13:46.787Z,1992
2018-02-11T13:14:46.317Z,2004
2018-02-11T13:15:46.480Z,1968
2018-02-11T13:16:46.442Z,2220
2018-02-11T13:17:46.459Z,1964
2018-02-11T13:18:47.132Z,1856
2018-02-11T13:19:47.146Z,1648
2018-02-11T13:20:46.987Z,1524
2018-02-11T13:21:46.921Z,1648
2018-02-11T13:22:47.427Z,1912
2018-02-11T13:23:47.100Z,1688
2018-02-11T13:24:47.390Z,1648
2018-02-11T13:25:47.518Z,1456
2018-02-11T13:26:47.902Z,1428
2018-02-11T13:27:47.672Z,1268
2018-02-11T13:28:47.785Z,1276
2018-02-11T13:29:47.791Z,1332
2018-02-11T13:30:48.264Z,1512
2018-02-11T13:31:47.985Z,1716
2018-02-11T13:32:48.414Z,1640
2018-02-11T13:33:47.898Z,1436
2018-02-11T13:34:48.310Z,1604
2018-02-11T13:35:50.261Z,1528
2018-02-11T13:36:49.577Z,1380
2018-02-11T13:37:50.062Z,1032
2018-02-11T13:38:49.881Z,824
2018-02-11T13:39:49.083Z,972
2018-02-11T13:40:48.801Z,1368
2018-02-11T13:41:48.685Z,1452
2018-02-11T13:42:48.593Z,1396
2018-02-11T13:43:48.637Z,1212
2018-02-11T13:44:48.467Z,900
2018-02-11T13:45:49.095Z,784
2018-02-11T13:46:49.746Z,788
2018-02-11T13:47:49.532Z,916
2018-02-11T13:48:49.395Z,1004
2018-02-11T13:49:49.799Z,1024
2018-02-11T13:50:50.073Z,1184
2018-02-11T13:51:50.028Z,1172
2018-02-11T13:52:50.806Z,1204
2018-02-11T13:53:50.544Z,1272
2018-02-11T13:54:50.838Z,1208
2018-02-11T13:55:50.547Z,1236
2018-02-11T13:56:50.637Z,1264
2018-02-11T13:57:50.040Z,1260
2018-02-11T13:58:50.623Z,1192
2018-02-11T13:59:50.863Z,1228
2018-02-11T14:00:51.333Z,1184
2018-02-11T14:01:51.378Z,1304
2018-02-11T14:02:51.831Z,1276
2018-02-11T14:03:51.842Z,1268
2018-02-11T14:04:51.838Z,1304